createdAt,value
2023-03-29T00:00:15.103Z,74
2023-03-29T00:05:15.107Z,77
2023-03-29T00:10:15.090Z,76
2023-03-29T00:15:15.097Z,76
2023-03-29T00:20:15.123Z,74
2023-03-29T00:25:15.125Z,76
2023-03-29T00:30:15.133Z,77
2023-03-29T00:35:15.096Z,79
2023-03-29T00:40:15.097Z,77
2023-03-29T00:45:15.089Z,77
2023-03-29T00:50:15.099Z,77
2023-03-29T00:55:15.098Z,77
2023-03-29T01:00:15.104Z,77
2023-03-29T01:05:15.098Z,77
2023-03-29T01:10:15.115Z,77
2023-03-29T01:15:15.093Z,76
2023-03-29T01:20:15.099Z,78
2023-03-29T01:25:15.099Z,78
2023-03-29T01:30:15.099Z,78
2023-03-29T01:35:15.103Z,78
2023-03-29T01:40:15.108Z,78
2023-03-29T01:45:15.091Z,78
2023-03-29T01:50:15.095Z,78
2023-03-29T01:55:15.086Z,80
2023-03-29T02:00:15.090Z,79
2023-03-29T02:05:15.095Z,80
2023-03-29T02:10:15.090Z,79
2023-03-29T02:15:15.093Z,79
2023-03-29T02:20:15.108Z,79
2023-03-29T02:25:15.092Z,79
2023-03-29T02:30:15.132Z,80
2023-03-29T02:35:15.085Z,81
2023-03-29T02:40:15.107Z,81
2023-03-29T02:45:15.105Z,81
2023-03-29T02:50:15.093Z,81
2023-03-29T02:55:15.096Z,80
2023-03-29T03:00:15.089Z,79
2023-03-29T03:05:15.107Z,81
2023-03-29T03:10:15.106Z,81
2023-03-29T03:15:15.097Z,81
2023-03-29T03:20:15.094Z,81
2023-03-29T03:25:15.089Z,81
2023-03-29T03:30:15.098Z,82
2023-03-29T03:35:15.085Z,83
2023-03-29T03:40:15.102Z,83
2023-03-29T03:45:15.078Z,84
2023-03-29T03:50:15.093Z,85
2023-03-29T03:55:15.086Z,85
2023-03-29T04:00:15.090Z,85
2023-03-29T04:05:15.088Z,85
2023-03-29T04:10:15.089Z,85
2023-03-29T04:15:15.094Z,85
2023-03-29T04:20:15.104Z,85
2023-03-29T04:25:15.102Z,85
2023-03-29T04:30:15.092Z,85
2023-03-29T04:35:15.098Z,85
2023-03-29T04:40:15.139Z,85
2023-03-29T04:45:15.106Z,85
2023-03-29T04:50:15.100Z,85
2023-03-29T04:55:15.091Z,85
2023-03-29T05:00:15.238Z,86
2023-03-29T05:05:15.094Z,86
2023-03-29T05:10:15.088Z,86
2023-03-29T05:15:15.080Z,86
2023-03-29T05:20:15.088Z,86
2023-03-29T05:25:15.088Z,86
2023-03-29T05:30:15.096Z,86
2023-03-29T05:35:15.089Z,87
2023-03-29T05:40:15.085Z,87
2023-03-29T05:45:15.090Z,87
2023-03-29T05:50:15.088Z,87
2023-03-29T05:55:15.085Z,87
2023-03-29T06:00:15.107Z,87
2023-03-29T06:05:15.117Z,87
2023-03-29T06:10:15.101Z,86
2023-03-29T06:15:15.112Z,87
2023-03-29T06:20:15.094Z,86
2023-03-29T06:25:15.092Z,86
2023-03-29T06:30:15.101Z,85
2023-03-29T06:35:15.099Z,86
2023-03-29T06:40:15.098Z,85
2023-03-29T06:45:15.084Z,84
2023-03-29T06:50:15.101Z,84
2023-03-29T06:55:15.098Z,83
2023-03-29T07:00:15.095Z,83
2023-03-29T07:05:15.103Z,83
2023-03-29T07:10:15.096Z,84
2023-03-29T07:15:15.089Z,83
2023-03-29T07:20:15.093Z,82
2023-03-29T07:25:15.090Z,81
2023-03-29T07:30:15.095Z,81
2023-03-29T07:35:15.094Z,80
2023-03-29T07:40:15.110Z,80
2023-03-29T07:45:15.104Z,81
2023-03-29T07:50:15.114Z,80
2023-03-29T07:55:15.103Z,79
2023-03-29T08:00:15.158Z,78
2023-03-29T08:05:17.570Z,78
2023-03-29T08:10:15.112Z,78
2023-03-29T08:15:15.105Z,78
2023-03-29T08:20:15.123Z,78
2023-03-29T08:25:15.132Z,78
2023-03-29T08:30:15.392Z,75
2023-03-29T08:35:15.109Z,74
2023-03-29T08:40:15.107Z,74
2023-03-29T08:45:15.097Z,73
2023-03-29T08:50:15.095Z,72
2023-03-29T08:55:15.090Z,70
2023-03-29T09:00:15.091Z,71
2023-03-29T09:05:15.101Z,70
2023-03-29T09:10:15.108Z,70
2023-03-29T09:15:15.128Z,69
2023-03-29T09:20:15.100Z,68
2023-03-29T09:25:15.098Z,68
2023-03-29T09:30:15.090Z,67
2023-03-29T09:35:15.092Z,67
2023-03-29T09:40:15.105Z,67
2023-03-29T09:45:15.089Z,67
2023-03-29T09:50:27.639Z,66
2023-03-29T09:55:15.090Z,64
2023-03-29T10:00:15.094Z,65
2023-03-29T10:05:15.098Z,65
2023-03-29T10:10:15.086Z,65
2023-03-29T10:15:23.195Z,64
2023-03-29T10:20:15.115Z,63
2023-03-29T10:25:15.091Z,64
2023-03-29T10:30:15.090Z,64
2023-03-29T10:35:15.096Z,63
2023-03-29T10:40:15.098Z,63
2023-03-29T10:45:15.089Z,62
2023-03-29T10:50:15.095Z,63
2023-03-29T10:55:15.098Z,61
2023-03-29T11:00:15.100Z,62
2023-03-29T11:05:15.092Z,61
2023-03-29T11:10:15.091Z,60
2023-03-29T11:15:15.078Z,61
2023-03-29T11:20:15.089Z,59
2023-03-29T11:25:15.084Z,61
2023-03-29T11:30:15.094Z,61
2023-03-29T11:35:15.087Z,61
2023-03-29T11:40:15.085Z,59
2023-03-29T11:45:15.088Z,59
2023-03-29T11:50:15.092Z,59
2023-03-29T11:55:15.095Z,59
2023-03-29T12:00:15.084Z,59
2023-03-29T12:05:15.081Z,58
2023-03-29T12:10:15.090Z,58
2023-03-29T12:15:15.083Z,58
2023-03-29T12:20:15.088Z,57
2023-03-29T12:25:16.173Z,58
2023-03-29T12:30:15.089Z,59
2023-03-29T12:35:15.118Z,57
2023-03-29T12:40:15.113Z,57
2023-03-29T12:45:15.102Z,57
2023-03-29T12:50:15.097Z,55
2023-03-29T12:55:15.094Z,55
2023-03-29T13:00:15.106Z,56
2023-03-29T13:05:15.118Z,56
2023-03-29T13:10:15.125Z,59
2023-03-29T13:15:15.110Z,58
2023-03-29T13:20:15.092Z,58
2023-03-29T13:25:15.096Z,59
2023-03-29T13:30:15.090Z,58
2023-03-29T13:35:15.103Z,59
2023-03-29T13:40:15.109Z,59
2023-03-29T13:45:15.101Z,60
2023-03-29T13:50:15.094Z,61
2023-03-29T13:55:15.088Z,61
2023-03-29T14:00:15.098Z,60
2023-03-29T14:05:15.090Z,61
2023-03-29T14:10:15.106Z,62
2023-03-29T14:15:15.094Z,63
2023-03-29T14:20:15.103Z,63
2023-03-29T14:25:15.095Z,63
2023-03-29T14:30:15.083Z,63
2023-03-29T14:35:15.088Z,62
2023-03-29T14:40:15.092Z,62
2023-03-29T14:45:15.087Z,61
2023-03-29T14:50:15.099Z,62
2023-03-29T14:55:15.086Z,62
2023-03-29T15:00:15.093Z,62
2023-03-29T15:05:15.093Z,61
2023-03-29T15:10:15.094Z,61
2023-03-29T15:15:15.103Z,61
2023-03-29T15:20:15.090Z,61
2023-03-29T15:25:15.122Z,61
2023-03-29T15:30:15.085Z,59
2023-03-29T15:35:15.104Z,59
2023-03-29T15:45:15.100Z,59
2023-03-29T15:50:15.096Z,60
2023-03-29T15:55:15.100Z,60
2023-03-29T16:00:15.096Z,60
2023-03-29T16:05:15.086Z,59
2023-03-29T16:10:15.094Z,59
2023-03-29T16:15:15.115Z,58
2023-03-29T16:20:15.095Z,60
2023-03-29T16:25:15.090Z,60
2023-03-29T16:30:15.219Z,59
2023-03-29T16:35:15.104Z,60
2023-03-29T16:40:15.320Z,61
2023-03-29T16:45:15.124Z,60
2023-03-29T16:50:15.118Z,61
2023-03-29T16:55:15.107Z,63
2023-03-29T17:00:15.088Z,62
2023-03-29T17:05:15.087Z,61
2023-03-29T17:10:15.089Z,61
2023-03-29T17:15:15.087Z,63
2023-03-29T17:20:15.089Z,63
2023-03-29T17:25:15.089Z,61
2023-03-29T17:30:15.097Z,62
2023-03-29T17:35:15.080Z,62
2023-03-29T17:40:15.102Z,61
2023-03-29T17:45:15.094Z,61
2023-03-29T17:50:15.104Z,60
2023-03-29T17:55:15.092Z,61
2023-03-29T18:00:15.095Z,61
2023-03-29T18:05:15.088Z,62
2023-03-29T18:10:15.090Z,62
2023-03-29T18:15:15.091Z,62
2023-03-29T18:20:15.096Z,62
2023-03-29T18:25:15.103Z,63
2023-03-29T18:30:15.106Z,63
2023-03-29T18:35:15.094Z,63
2023-03-29T18:40:15.091Z,63
2023-03-29T18:45:15.082Z,64
2023-03-29T18:50:15.105Z,64
2023-03-29T18:55:15.102Z,64
2023-03-29T19:00:15.111Z,66
2023-03-29T19:05:15.097Z,65
2023-03-29T19:10:15.118Z,65
2023-03-29T19:15:15.093Z,66
2023-03-29T19:20:15.099Z,67
2023-03-29T19:25:15.145Z,67
2023-03-29T19:30:15.101Z,68
2023-03-29T19:35:15.098Z,68
2023-03-29T19:40:15.095Z,69
2023-03-29T19:45:15.099Z,69
2023-03-29T19:50:15.104Z,69
2023-03-29T19:55:15.096Z,69
2023-03-29T20:00:15.102Z,70
2023-03-29T20:05:15.078Z,70
2023-03-29T20:10:15.090Z,70
2023-03-29T20:15:15.083Z,71
2023-03-29T20:20:15.093Z,70
2023-03-29T20:25:15.093Z,70
2023-03-29T20:30:15.089Z,71
2023-03-29T20:35:15.088Z,72
2023-03-29T20:40:15.093Z,73
2023-03-29T20:45:15.113Z,73
2023-03-29T20:50:15.101Z,73
2023-03-29T20:55:15.090Z,73
2023-03-29T21:00:15.097Z,72
2023-03-29T21:05:15.092Z,72
2023-03-29T21:10:15.098Z,72
2023-03-29T21:15:15.087Z,73
2023-03-29T21:20:15.114Z,73
2023-03-29T21:25:15.092Z,74
2023-03-29T21:30:15.096Z,74
2023-03-29T21:35:15.092Z,75
2023-03-29T21:40:15.128Z,76
2023-03-29T21:45:15.082Z,75
2023-03-29T21:50:15.093Z,74
2023-03-29T21:55:15.090Z,74
2023-03-29T22:00:15.098Z,75
2023-03-29T22:05:15.113Z,73
2023-03-29T22:10:15.111Z,73
2023-03-29T22:15:15.104Z,74
2023-03-29T22:20:15.118Z,74
2023-03-29T22:25:15.084Z,74
2023-03-29T22:30:15.092Z,72
2023-03-29T22:35:15.105Z,72
2023-03-29T22:40:15.112Z,72
2023-03-29T22:45:15.100Z,71
2023-03-29T22:50:15.100Z,71
2023-03-29T22:55:15.103Z,71
2023-03-29T23:00:15.091Z,71
2023-03-29T23:05:15.091Z,72
2023-03-29T23:10:15.105Z,73
2023-03-29T23:15:15.089Z,72
2023-03-29T23:20:15.124Z,72
2023-03-29T23:25:15.109Z,73
2023-03-29T23:30:15.129Z,73
2023-03-29T23:35:15.089Z,72
2023-03-29T23:40:15.092Z,72
2023-03-29T23:45:15.094Z,71
2023-03-29T23:50:15.097Z,72
2023-03-29T23:55:15.094Z,72
